Pioneer Knutsen — LMIK — position and weather

sailwx.info

Track history (hours):
 
Tides and Currents Weather Stations Pressure Air Temp Water Temp Dewpoint Dewpoint Depression Visibility Wind Speed Wind Dir Waves Ship Positions

Pioneer Knutsen

Last reported at 2016-Aug-24 00:31 UTC. Time now 2016-Aug-24 06:48 UTC.
Position N 64°45' E 010°58'.

Length 70 m; draft 3.6 m.

Type: Ship. MMSI: 259393000.

Date/timePositionNaut miles runAvg speedWind from/ knotsBaromVisibWave heightAir tempDewpointWater temp
2016-Aug-24 00:31N 64°45' E 010°58'1111.4
2016-Aug-23 23:34N 64°52' E 011°17'1211.6
2016-Aug-23 22:33N 65°00' E 011°37'1411.8
2016-Aug-23 21:23N 65°12' E 011°53'1 0.0
2016-Aug-23 04:33N 65°12' E 011°52'1111.1
2016-Aug-23 03:33N 65°01' E 011°42'1111.4
2016-Aug-23 02:33N 64°54' E 011°21'1211.7
2016-Aug-23 01:33N 64°46' E 011°02'5710.6
2016-Aug-22 20:12N 63°59' E 009°47'710.7
2016-Aug-22 19:33N 63°52' E 009°42'7 2.0
2016-Aug-22 16:15N 63°47' E 009°33'811.9
2016-Aug-22 15:34N 63°39' E 009°29'1211.2
2016-Aug-22 14:30N 63°31' E 009°09'241 9.3
2016-Aug-21 12:33N 59°53' E 005°32'1110.7
2016-Aug-21 11:33N 59°43' E 005°27'1212.1
2016-Aug-21 10:33N 59°33' E 005°13'1111.3
2016-Aug-21 09:34N 59°22' E 005°18'1211.9
2016-Aug-21 08:33N 59°10' E 005°21'1111.2
2016-Aug-21 07:33N 59°01' E 005°33'5 5.4
2016-Aug-21 06:33N 58°55' E 005°35'0 0.0
2016-Aug-21 05:33N 58°55' E 005°35'0 0.0
2016-Aug-21 04:33N 58°55' E 005°35'0 0.0
2016-Aug-21 03:32N 58°55' E 005°35'0 0.0
2016-Aug-21 02:32N 58°55' E 005°35'0 0.0
2016-Aug-21 01:31N 58°55' E 005°35'0 0.0
2016-Aug-21 00:31N 58°55' E 005°35'0 0.0
2016-Aug-20 23:33N 58°55' E 005°35'5 5.0
2016-Aug-20 22:33N 58°51' E 005°30'1111.0
2016-Aug-20 21:33N 58°40' E 005°29'1313.0
2016-Aug-20 20:33N 58°29' E 005°42'1413.5
2016-Aug-20 19:33N 58°20' E 006°01'1312.9
2016-Aug-20 18:33N 58°11' E 006°19'1211.9
2016-Aug-20 17:33N 58°03' E 006°36'7 7.0
2016-Aug-20 16:33N 58°05' E 006°48'1 0.9
2016-Aug-20 15:33N 58°05' E 006°47'0 0.0
2016-Aug-20 14:33N 58°05' E 006°47'0 0.0
2016-Aug-20 13:32N 58°05' E 006°47'0 0.0
2016-Aug-20 12:32N 58°05' E 006°47'0 0.0
2016-Aug-20 11:31N 58°05' E 006°47'0 0.0
2016-Aug-20 10:31N 58°05' E 006°47'2 1.8
2016-Aug-20 09:33N 58°05' E 006°50'7 7.4
2016-Aug-20 08:33N 58°04' E 006°36'1110.7
2016-Aug-20 07:33N 58°12' E 006°24'1310.0
2016-Aug-20 06:16N 58°19' E 006°03'7 9.4
2016-Aug-20 05:33N 58°23' E 005°53'1110.6
2016-Aug-20 04:31N 58°31' E 005°37'1111.7
2016-Aug-20 03:33N 58°41' E 005°28'1110.9
2016-Aug-20 02:34N 58°52' E 005°30'4 4.4
2016-Aug-20 01:33N 58°55' E 005°35'0 0.0
2016-Aug-20 00:32N 58°55' E 005°35'0 0.0
2016-Aug-19 23:32N 58°55' E 005°35'0 0.0
2016-Aug-19 22:32N 58°55' E 005°35'0 0.0
2016-Aug-19 21:31N 58°55' E 005°35'0 0.0
2016-Aug-19 20:31N 58°55' E 005°35'0 0.0
2016-Aug-19 19:33N 58°55' E 005°35'0 0.0
2016-Aug-19 18:33N 58°55' E 005°35'7 7.3
2016-Aug-19 17:33N 59°03' E 005°32'1111.5
2016-Aug-19 16:33N 59°13' E 005°20'1211.7
2016-Aug-19 15:33N 59°24' E 005°16'1211.9
2016-Aug-19 14:31N 59°36' E 005°16'1212.8
2016-Aug-19 13:33N 59°46' E 005°32'210 9.1
2016-Aug-18 14:28N 63°06' E 007°42'42 2.3
2016-Aug-17 20:19N 63°29' E 008°60'1011.2
2016-Aug-17 19:25N 63°34' E 009°20'1011.2
2016-Aug-17 18:33N 63°42' E 009°31'8 7.4
2016-Aug-17 17:32N 63°49' E 009°38'0 0.0
2016-Aug-17 16:32N 63°49' E 009°38'0 0.0
2016-Aug-17 15:31N 63°49' E 009°38'0 0.0
2016-Aug-17 14:31N 63°49' E 009°38'3 3.3
2016-Aug-17 13:33N 63°47' E 009°33'1211.5
2016-Aug-17 12:32N 63°35' E 009°26'  
2016-Aug-15 06:32N 63°29' E 009°01'8910.9
2016-Aug-14 22:21N 64°43' E 010°54'1011.9
2016-Aug-14 21:33N 64°50' E 011°10'1211.8
2016-Aug-14 20:33N 64°58' E 011°32'1211.7
2016-Aug-14 19:32N 65°07' E 011°49'16 1.0
2016-Aug-14 03:10N 65°22' E 012°03'711.6
2016-Aug-14 02:33N 65°15' E 011°56'1111.5
2016-Aug-14 01:33N 65°05' E 011°46'1111.4
2016-Aug-14 00:34N 64°56' E 011°27'  
Track history (hours):
 
Tides and Currents Weather Stations Pressure Air Temp Water Temp Dewpoint Dewpoint Depression Visibility Wind Speed Wind Dir Waves Ship Positions

Pioneer Knutsen

Last reported at 2016-Aug-24 00:31 UTC. Time now 2016-Aug-24 06:48 UTC.
Position N 64°45' E 010°58'.

Length 70 m; draft 3.6 m.

Type: Ship. MMSI: 259393000.

Date/timePositionNaut miles runAvg speedWind from/ knotsBaromVisibWave heightAir tempDewpointWater temp
2016-Aug-24 00:31N 64°45' E 010°58'1111.4
2016-Aug-23 23:34N 64°52' E 011°17'1211.6
2016-Aug-23 22:33N 65°00' E 011°37'1411.8
2016-Aug-23 21:23N 65°12' E 011°53'1 0.0
2016-Aug-23 04:33N 65°12' E 011°52'1111.1
2016-Aug-23 03:33N 65°01' E 011°42'1111.4
2016-Aug-23 02:33N 64°54' E 011°21'1211.7
2016-Aug-23 01:33N 64°46' E 011°02'5710.6
2016-Aug-22 20:12N 63°59' E 009°47'710.7
2016-Aug-22 19:33N 63°52' E 009°42'7 2.0
2016-Aug-22 16:15N 63°47' E 009°33'811.9
2016-Aug-22 15:34N 63°39' E 009°29'1211.2
2016-Aug-22 14:30N 63°31' E 009°09'241 9.3
2016-Aug-21 12:33N 59°53' E 005°32'1110.7
2016-Aug-21 11:33N 59°43' E 005°27'1212.1
2016-Aug-21 10:33N 59°33' E 005°13'1111.3
2016-Aug-21 09:34N 59°22' E 005°18'1211.9
2016-Aug-21 08:33N 59°10' E 005°21'1111.2
2016-Aug-21 07:33N 59°01' E 005°33'5 5.4
2016-Aug-21 06:33N 58°55' E 005°35'0 0.0
2016-Aug-21 05:33N 58°55' E 005°35'0 0.0
2016-Aug-21 04:33N 58°55' E 005°35'0 0.0
2016-Aug-21 03:32N 58°55' E 005°35'0 0.0
2016-Aug-21 02:32N 58°55' E 005°35'0 0.0
2016-Aug-21 01:31N 58°55' E 005°35'0 0.0
2016-Aug-21 00:31N 58°55' E 005°35'0 0.0
2016-Aug-20 23:33N 58°55' E 005°35'5 5.0
2016-Aug-20 22:33N 58°51' E 005°30'1111.0
2016-Aug-20 21:33N 58°40' E 005°29'1313.0
2016-Aug-20 20:33N 58°29' E 005°42'1413.5
2016-Aug-20 19:33N 58°20' E 006°01'1312.9
2016-Aug-20 18:33N 58°11' E 006°19'1211.9
2016-Aug-20 17:33N 58°03' E 006°36'7 7.0
2016-Aug-20 16:33N 58°05' E 006°48'1 0.9
2016-Aug-20 15:33N 58°05' E 006°47'0 0.0
2016-Aug-20 14:33N 58°05' E 006°47'0 0.0
2016-Aug-20 13:32N 58°05' E 006°47'0 0.0
2016-Aug-20 12:32N 58°05' E 006°47'0 0.0
2016-Aug-20 11:31N 58°05' E 006°47'0 0.0
2016-Aug-20 10:31N 58°05' E 006°47'2 1.8
2016-Aug-20 09:33N 58°05' E 006°50'7 7.4
2016-Aug-20 08:33N 58°04' E 006°36'1110.7
2016-Aug-20 07:33N 58°12' E 006°24'1310.0
2016-Aug-20 06:16N 58°19' E 006°03'7 9.4
2016-Aug-20 05:33N 58°23' E 005°53'1110.6
2016-Aug-20 04:31N 58°31' E 005°37'1111.7
2016-Aug-20 03:33N 58°41' E 005°28'1110.9
2016-Aug-20 02:34N 58°52' E 005°30'4 4.4
2016-Aug-20 01:33N 58°55' E 005°35'0 0.0
2016-Aug-20 00:32N 58°55' E 005°35'0 0.0
2016-Aug-19 23:32N 58°55' E 005°35'0 0.0
2016-Aug-19 22:32N 58°55' E 005°35'0 0.0
2016-Aug-19 21:31N 58°55' E 005°35'0 0.0
2016-Aug-19 20:31N 58°55' E 005°35'0 0.0
2016-Aug-19 19:33N 58°55' E 005°35'0 0.0
2016-Aug-19 18:33N 58°55' E 005°35'7 7.3
2016-Aug-19 17:33N 59°03' E 005°32'1111.5
2016-Aug-19 16:33N 59°13' E 005°20'1211.7
2016-Aug-19 15:33N 59°24' E 005°16'1211.9
2016-Aug-19 14:31N 59°36' E 005°16'1212.8
2016-Aug-19 13:33N 59°46' E 005°32'210 9.1
2016-Aug-18 14:28N 63°06' E 007°42'42 2.3
2016-Aug-17 20:19N 63°29' E 008°60'1011.2
2016-Aug-17 19:25N 63°34' E 009°20'1011.2
2016-Aug-17 18:33N 63°42' E 009°31'8 7.4
2016-Aug-17 17:32N 63°49' E 009°38'0 0.0
2016-Aug-17 16:32N 63°49' E 009°38'0 0.0
2016-Aug-17 15:31N 63°49' E 009°38'0 0.0
2016-Aug-17 14:31N 63°49' E 009°38'3 3.3
2016-Aug-17 13:33N 63°47' E 009°33'1211.5
2016-Aug-17 12:32N 63°35' E 009°26'  
2016-Aug-15 06:32N 63°29' E 009°01'8910.9
2016-Aug-14 22:21N 64°43' E 010°54'1011.9
2016-Aug-14 21:33N 64°50' E 011°10'1211.8
2016-Aug-14 20:33N 64°58' E 011°32'1211.7
2016-Aug-14 19:32N 65°07' E 011°49'16 1.0
2016-Aug-14 03:10N 65°22' E 012°03'711.6
2016-Aug-14 02:33N 65°15' E 011°56'1111.5
2016-Aug-14 01:33N 65°05' E 011°46'1111.4
2016-Aug-14 00:34N 64°56' E 011°27'  

Dump ship's entire track history